sensor_id;sensor_type;location;lat;lon;timestamp;pressure;altitude;pressure_sealevel;temperature;humidity
76732;BME280;65656;51.130;13.658;2024-03-23T00:55:29;98366.53;;;7.68;100.00
76732;BME280;65656;51.130;13.658;2024-03-23T00:59:30;98384.44;;;7.59;100.00
76732;BME280;65656;51.130;13.658;2024-03-23T01:03:30;98366.34;;;7.48;100.00
76732;BME280;65656;51.130;13.658;2024-03-23T01:07:31;98369.38;;;7.30;100.00
76732;BME280;65656;51.130;13.658;2024-03-23T01:11:31;98379.72;;;7.28;100.00
76732;BME280;65656;51.130;13.658;2024-03-23T01:15:31;98372.84;;;7.47;100.00
76732;BME280;65656;51.130;13.658;2024-03-23T01:19:32;98371.88;;;7.58;100.00
76732;BME280;65656;51.130;13.658;2024-03-23T01:23:32;98353.66;;;7.37;100.00
76732;BME280;65656;51.130;13.658;2024-03-23T01:27:33;98345.81;;;7.18;100.00
76732;BME280;65656;51.130;13.658;2024-03-23T01:31:33;98353.81;;;7.03;100.00
76732;BME280;65656;51.130;13.658;2024-03-23T01:35:34;98348.59;;;7.23;100.00
76732;BME280;65656;51.130;13.658;2024-03-23T01:39:34;98347.56;;;7.30;100.00
76732;BME280;65656;51.130;13.658;2024-03-23T01:43:35;98340.06;;;7.15;100.00
76732;BME280;65656;51.130;13.658;2024-03-23T01:47:35;98338.28;;;7.25;100.00
76732;BME280;65656;51.130;13.658;2024-03-23T01:51:36;98335.72;;;7.41;100.00
76732;BME280;65656;51.130;13.658;2024-03-23T01:55:37;98324.31;;;7.44;100.00
76732;BME280;65656;51.130;13.658;2024-03-23T01:59:41;98323.22;;;7.45;100.00
76732;BME280;65656;51.130;13.658;2024-03-23T02:03:41;98313.97;;;7.46;100.00
76732;BME280;65656;51.130;13.658;2024-03-23T02:07:42;98303.06;;;7.46;100.00
76732;BME280;65656;51.130;13.658;2024-03-23T02:11:42;98299.25;;;7.47;100.00
76732;BME280;65656;51.130;13.658;2024-03-23T02:15:44;98297.13;;;7.49;100.00
76732;BME280;65656;51.130;13.658;2024-03-23T02:19:44;98293.72;;;7.37;100.00
76732;BME280;65656;51.130;13.658;2024-03-23T02:23:45;98283.97;;;7.41;100.00
76732;BME280;65656;51.130;13.658;2024-03-23T02:27:45;98282.09;;;7.19;100.00
76732;BME280;65656;51.130;13.658;2024-03-23T02:31:45;98283.09;;;7.13;100.00
76732;BME280;65656;51.130;13.658;2024-03-23T02:35:47;98265.22;;;7.22;100.00
76732;BME280;65656;51.130;13.658;2024-03-23T02:39:47;98271.56;;;7.28;100.00
76732;BME280;65656;51.130;13.658;2024-03-23T02:43:50;98267.00;;;7.34;100.00
76732;BME280;65656;51.130;13.658;2024-03-23T02:47:51;98267.00;;;7.34;100.00
76732;BME280;65656;51.130;13.658;2024-03-23T02:51:51;98255.16;;;7.23;100.00
76732;BME280;65656;51.130;13.658;2024-03-23T02:55:52;98245.50;;;7.10;100.00
76732;BME280;65656;51.130;13.658;2024-03-23T02:59:52;98249.25;;;7.04;100.00
76732;BME280;65656;51.130;13.658;2024-03-23T03:03:53;98246.50;;;7.04;100.00
76732;BME280;65656;51.130;13.658;2024-03-23T03:07:53;98230.69;;;7.01;100.00
76732;BME280;65656;51.130;13.658;2024-03-23T03:11:54;98248.47;;;7.09;100.00
76732;BME280;65656;51.130;13.658;2024-03-23T03:15:54;98242.81;;;7.15;100.00
76732;BME280;65656;51.130;13.658;2024-03-23T03:19:54;98230.94;;;7.26;100.00
76732;BME280;65656;51.130;13.658;2024-03-23T03:23:55;98235.94;;;7.35;100.00
76732;BME280;65656;51.130;13.658;2024-03-23T03:27:55;98224.47;;;7.33;100.00
76732;BME280;65656;51.130;13.658;2024-03-23T03:31:56;98219.50;;;7.24;100.00
76732;BME280;65656;51.130;13.658;2024-03-23T03:35:56;98215.47;;;7.32;100.00
76732;BME280;65656;51.130;13.658;2024-03-23T03:39:56;98215.84;;;7.41;100.00
76732;BME280;65656;51.130;13.658;2024-03-23T03:43:57;98204.44;;;7.49;100.00
76732;BME280;65656;51.130;13.658;2024-03-23T03:47:57;98197.38;;;7.53;100.00
76732;BME280;65656;51.130;13.658;2024-03-23T03:51:58;98196.28;;;7.54;100.00
76732;BME280;65656;51.130;13.658;2024-03-23T03:56:01;98196.88;;;7.56;100.00
76732;BME280;65656;51.130;13.658;2024-03-23T04:00:02;98188.09;;;7.49;100.00
76732;BME280;65656;51.130;13.658;2024-03-23T04:04:03;98184.22;;;7.40;100.00
76732;BME280;65656;51.130;13.658;2024-03-23T04:08:04;98179.25;;;7.37;100.00
76732;BME280;65656;51.130;13.658;2024-03-23T04:12:05;98157.81;;;7.45;100.00
76732;BME280;65656;51.130;13.658;2024-03-23T04:16:05;98146.41;;;7.53;100.00
76732;BME280;65656;51.130;13.658;2024-03-23T04:20:06;98144.72;;;7.42;100.00
76732;BME280;65656;51.130;13.658;2024-03-23T04:24:07;98147.16;;;7.44;100.00
76732;BME280;65656;51.130;13.658;2024-03-23T04:28:07;98130.22;;;7.37;100.00
76732;BME280;65656;51.130;13.658;2024-03-23T04:32:08;98129.53;;;7.19;100.00
76732;BME280;65656;51.130;13.658;2024-03-23T04:36:09;98139.31;;;7.15;100.00
76732;BME280;65656;51.130;13.658;2024-03-23T04:40:09;98139.91;;;7.22;100.00
76732;BME280;65656;51.130;13.658;2024-03-23T04:44:10;98141.34;;;7.30;100.00
76732;BME280;65656;51.130;13.658;2024-03-23T04:48:10;98129.13;;;7.33;100.00
76732;BME280;65656;51.130;13.658;2024-03-23T04:52:11;98099.09;;;7.28;100.00
76732;BME280;65656;51.130;13.658;2024-03-23T04:56:11;98072.38;;;7.24;100.00
76732;BME280;65656;51.130;13.658;2024-03-23T05:00:12;98071.09;;;7.00;100.00
76732;BME280;65656;51.130;13.658;2024-03-23T05:04:13;98054.41;;;6.91;100.00
76732;BME280;65656;51.130;13.658;2024-03-23T05:08:13;98061.53;;;6.97;100.00
76732;BME280;65656;51.130;13.658;2024-03-23T05:12:14;98063.50;;;7.02;100.00
76732;BME280;65656;51.130;13.658;2024-03-23T05:16:14;98049.41;;;7.10;100.00
76732;BME280;65656;51.130;13.658;2024-03-23T05:20:14;98045.66;;;7.21;100.00
76732;BME280;65656;51.130;13.658;2024-03-23T05:24:15;98033.75;;;7.38;100.00
76732;BME280;65656;51.130;13.658;2024-03-23T05:28:15;98003.25;;;7.36;100.00
76732;BME280;65656;51.130;13.658;2024-03-23T05:32:16;98008.16;;;7.39;100.00
76732;BME280;65656;51.130;13.658;2024-03-23T05:36:17;98005.00;;;7.62;100.00
76732;BME280;65656;51.130;13.658;2024-03-23T05:40:17;97992.53;;;7.76;100.00
76732;BME280;65656;51.130;13.658;2024-03-23T05:44:18;98008.38;;;7.85;100.00
76732;BME280;65656;51.130;13.658;2024-03-23T05:48:18;98021.50;;;7.93;100.00
76732;BME280;65656;51.130;13.658;2024-03-23T05:52:19;98003.78;;;7.90;100.00
76732;BME280;65656;51.130;13.658;2024-03-23T05:56:19;97979.78;;;7.87;100.00
76732;BME280;65656;51.130;13.658;2024-03-23T06:00:20;97974.56;;;7.86;100.00
76732;BME280;65656;51.130;13.658;2024-03-23T06:04:20;97953.03;;;7.79;100.00
76732;BME280;65656;51.130;13.658;2024-03-23T06:08:22;97938.56;;;7.83;100.00
76732;BME280;65656;51.130;13.658;2024-03-23T06:12:22;97936.38;;;7.75;100.00
76732;BME280;65656;51.130;13.658;2024-03-23T06:16:23;97916.19;;;7.71;100.00
76732;BME280;65656;51.130;13.658;2024-03-23T06:20:24;97909.06;;;7.70;100.00
76732;BME280;65656;51.130;13.658;2024-03-23T06:24:25;97900.91;;;7.65;100.00
76732;BME280;65656;51.130;13.658;2024-03-23T06:28:25;97907.97;;;7.61;100.00
76732;BME280;65656;51.130;13.658;2024-03-23T06:32:27;97894.91;;;7.63;100.00
76732;BME280;65656;51.130;13.658;2024-03-23T06:36:28;97885.63;;;7.64;100.00
76732;BME280;65656;51.130;13.658;2024-03-23T06:40:28;97873.09;;;7.63;100.00
76732;BME280;65656;51.130;13.658;2024-03-23T06:44:29;97855.66;;;7.69;100.00
76732;BME280;65656;51.130;13.658;2024-03-23T06:48:30;97846.94;;;7.67;100.00
76732;BME280;65656;51.130;13.658;2024-03-23T06:52:30;97823.22;;;7.63;100.00
76732;BME280;65656;51.130;13.658;2024-03-23T06:56:31;97825.94;;;7.63;100.00
76732;BME280;65656;51.130;13.658;2024-03-23T07:00:31;97842.28;;;7.58;100.00
76732;BME280;65656;51.130;13.658;2024-03-23T07:04:32;97828.94;;;7.56;100.00
76732;BME280;65656;51.130;13.658;2024-03-23T07:08:32;97858.06;;;7.50;100.00
76732;BME280;65656;51.130;13.658;2024-03-23T07:12:33;97873.88;;;7.53;100.00
76732;BME280;65656;51.130;13.658;2024-03-23T07:16:34;97861.06;;;7.49;100.00
76732;BME280;65656;51.130;13.658;2024-03-23T07:20:34;97863.75;;;7.44;100.00
76732;BME280;65656;51.130;13.658;2024-03-23T07:24:35;97826.19;;;7.61;100.00
76732;BME280;65656;51.130;13.658;2024-03-23T07:28:35;97811.78;;;7.76;100.00
76732;BME280;65656;51.130;13.658;2024-03-23T07:32:36;97805.50;;;7.75;100.00
76732;BME280;65656;51.130;13.658;2024-03-23T07:36:36;97806.03;;;7.62;100.00
76732;BME280;65656;51.130;13.658;2024-03-23T07:40:36;97789.66;;;7.42;100.00
76732;BME280;65656;51.130;13.658;2024-03-23T07:44:37;97785.84;;;7.43;100.00
76732;BME280;65656;51.130;13.658;2024-03-23T07:48:38;97772.78;;;7.65;100.00
76732;BME280;65656;51.130;13.658;2024-03-23T07:52:39;97764.06;;;7.63;100.00
76732;BME280;65656;51.130;13.658;2024-03-23T07:56:39;97737.31;;;8.01;100.00
76732;BME280;65656;51.130;13.658;2024-03-23T08:00:40;97717.91;;;8.43;100.00
76732;BME280;65656;51.130;13.658;2024-03-23T08:04:40;97702.81;;;8.61;100.00
76732;BME280;65656;51.130;13.658;2024-03-23T08:08:43;97693.59;;;8.52;100.00
76732;BME280;65656;51.130;13.658;2024-03-23T08:12:47;97674.09;;;8.74;100.00
76732;BME280;65656;51.130;13.658;2024-03-23T08:16:47;97668.44;;;8.55;100.00
76732;BME280;65656;51.130;13.658;2024-03-23T08:21:02;97657.75;;;8.63;100.00
76732;BME280;65656;51.130;13.658;2024-03-23T08:25:02;97647.56;;;8.84;100.00
76732;BME280;65656;51.130;13.658;2024-03-23T08:29:04;97639.94;;;9.55;100.00
76732;BME280;65656;51.130;13.658;2024-03-23T08:33:04;97618.19;;;9.97;100.00
76732;BME280;65656;51.130;13.658;2024-03-23T08:37:04;97617.06;;;9.74;100.00
76732;BME280;65656;51.130;13.658;2024-03-23T08:41:06;97619.69;;;9.56;100.00
76732;BME280;65656;51.130;13.658;2024-03-23T08:45:07;97620.31;;;9.18;100.00
76732;BME280;65656;51.130;13.658;2024-03-23T08:49:08;97629.84;;;9.21;100.00
76732;BME280;65656;51.130;13.658;2024-03-23T08:53:08;97636.53;;;9.00;100.00
76732;BME280;65656;51.130;13.658;2024-03-23T09:01:19;97626.75;;;9.62;100.00
76732;BME280;65656;51.130;13.658;2024-03-23T09:05:19;97625.00;;;9.71;100.00
76732;BME280;65656;51.130;13.658;2024-03-23T09:09:20;97617.91;;;9.70;100.00
76732;BME280;65656;51.130;13.658;2024-03-23T09:13:20;97609.88;;;10.08;100.00
76732;BME280;65656;51.130;13.658;2024-03-23T09:17:20;97611.63;;;10.46;100.00
76732;BME280;65656;51.130;13.658;2024-03-23T09:21:21;97615.63;;;10.35;100.00
76732;BME280;65656;51.130;13.658;2024-03-23T09:25:21;97609.06;;;10.07;100.00
76732;BME280;65656;51.130;13.658;2024-03-23T09:29:22;97636.16;;;10.03;100.00
76732;BME280;65656;51.130;13.658;2024-03-23T09:33:22;97655.09;;;10.29;100.00
76732;BME280;65656;51.130;13.658;2024-03-23T09:37:23;97690.50;;;10.15;100.00
76732;BME280;65656;51.130;13.658;2024-03-23T09:41:23;97708.91;;;9.46;100.00
76732;BME280;65656;51.130;13.658;2024-03-23T09:45:28;97727.69;;;8.59;100.00
76732;BME280;65656;51.130;13.658;2024-03-23T09:49:29;97750.44;;;7.48;100.00
76732;BME280;65656;51.130;13.658;2024-03-23T09:53:30;97778.09;;;7.04;100.00
76732;BME280;65656;51.130;13.658;2024-03-23T09:57:30;97808.84;;;6.42;100.00
76732;BME280;65656;51.130;13.658;2024-03-23T10:01:30;97854.22;;;5.99;100.00
76732;BME280;65656;51.130;13.658;2024-03-23T10:05:32;97870.72;;;5.66;100.00
76732;BME280;65656;51.130;13.658;2024-03-23T10:09:32;97890.50;;;4.73;100.00
76732;BME280;65656;51.130;13.658;2024-03-23T10:13:33;97925.72;;;4.68;100.00
76732;BME280;65656;51.130;13.658;2024-03-23T10:17:33;97924.88;;;4.01;100.00
76732;BME280;65656;51.130;13.658;2024-03-23T10:21:34;97965.34;;;3.90;100.00
76732;BME280;65656;51.130;13.658;2024-03-23T10:25:35;97981.88;;;3.77;100.00
76732;BME280;65656;51.130;13.658;2024-03-23T10:29:35;97996.38;;;3.71;100.00
76732;BME280;65656;51.130;13.658;2024-03-23T10:33:36;98023.75;;;3.58;100.00
76732;BME280;65656;51.130;13.658;2024-03-23T10:37:36;98053.69;;;3.40;100.00
76732;BME280;65656;51.130;13.658;2024-03-23T10:41:37;98081.97;;;3.20;100.00
76732;BME280;65656;51.130;13.658;2024-03-23T10:45:39;98107.03;;;3.27;100.00
76732;BME280;65656;51.130;13.658;2024-03-23T10:49:40;98125.72;;;3.17;100.00
76732;BME280;65656;51.130;13.658;2024-03-23T10:53:40;98134.84;;;2.93;100.00
76732;BME280;65656;51.130;13.658;2024-03-23T10:58:10;98153.34;;;2.96;100.00
76732;BME280;65656;51.130;13.658;2024-03-23T11:02:20;98173.38;;;3.06;100.00
76732;BME280;65656;51.130;13.658;2024-03-23T11:06:47;98193.13;;;3.07;100.00
76732;BME280;65656;51.130;13.658;2024-03-23T11:10:47;98206.41;;;2.97;100.00
76732;BME280;65656;51.130;13.658;2024-03-23T11:14:52;98205.34;;;2.98;100.00
76732;BME280;65656;51.130;13.658;2024-03-23T11:18:54;98214.78;;;3.07;100.00
76732;BME280;65656;51.130;13.658;2024-03-23T11:22:54;98214.31;;;3.10;100.00
76732;BME280;65656;51.130;13.658;2024-03-23T11:26:54;98215.84;;;3.06;100.00
76732;BME280;65656;51.130;13.658;2024-03-23T11:30:55;98215.09;;;2.99;100.00
76732;BME280;65656;51.130;13.658;2024-03-23T11:34:55;98231.59;;;3.09;100.00
76732;BME280;65656;51.130;13.658;2024-03-23T11:38:56;98238.94;;;3.20;100.00
76732;BME280;65656;51.130;13.658;2024-03-23T11:42:58;98247.41;;;3.12;100.00
76732;BME280;65656;51.130;13.658;2024-03-23T11:47:08;98261.59;;;3.07;100.00
76732;BME280;65656;51.130;13.658;2024-03-23T11:51:09;98256.81;;;3.21;100.00
76732;BME280;65656;51.130;13.658;2024-03-23T11:55:09;98263.31;;;3.32;100.00
76732;BME280;65656;51.130;13.658;2024-03-23T11:59:09;98273.31;;;3.31;100.00
76732;BME280;65656;51.130;13.658;2024-03-23T12:03:10;98272.84;;;3.34;100.00
76732;BME280;65656;51.130;13.658;2024-03-23T12:07:20;98259.19;;;3.29;100.00
76732;BME280;65656;51.130;13.658;2024-03-23T12:11:21;98254.84;;;3.40;100.00
76732;BME280;65656;51.130;13.658;2024-03-23T12:15:21;98253.06;;;3.22;100.00
76732;BME280;65656;51.130;13.658;2024-03-23T12:19:22;98262.50;;;3.31;100.00
76732;BME280;65656;51.130;13.658;2024-03-23T12:23:22;98244.41;;;3.44;100.00
76732;BME280;65656;51.130;13.658;2024-03-23T12:27:23;98248.22;;;3.66;100.00
76732;BME280;65656;51.130;13.658;2024-03-23T12:31:23;98240.66;;;3.68;100.00
76732;BME280;65656;51.130;13.658;2024-03-23T12:35:23;98253.16;;;3.69;100.00
76732;BME280;65656;51.130;13.658;2024-03-23T12:39:24;98257.63;;;3.75;100.00
76732;BME280;65656;51.130;13.658;2024-03-23T12:43:25;98239.72;;;3.74;100.00
76732;BME280;65656;51.130;13.658;2024-03-23T12:47:26;98225.09;;;3.52;100.00
76732;BME280;65656;51.130;13.658;2024-03-23T12:51:26;98237.34;;;3.43;100.00
76732;BME280;65656;51.130;13.658;2024-03-23T12:55:27;98246.06;;;3.45;100.00
76732;BME280;65656;51.130;13.658;2024-03-23T12:59:28;98250.31;;;3.64;100.00
76732;BME280;65656;51.130;13.658;2024-03-23T13:03:28;98241.56;;;4.32;100.00
76732;BME280;65656;51.130;13.658;2024-03-23T13:07:28;98257.38;;;4.12;100.00
76732;BME280;65656;51.130;13.658;2024-03-23T13:11:30;98249.75;;;4.61;100.00
76732;BME280;65656;51.130;13.658;2024-03-23T13:15:31;98235.59;;;4.59;100.00
76732;BME280;65656;51.130;13.658;2024-03-23T13:19:32;98233.25;;;4.51;100.00
76732;BME280;65656;51.130;13.658;2024-03-23T13:23:32;98229.69;;;4.22;100.00
76732;BME280;65656;51.130;13.658;2024-03-23T13:27:32;98257.81;;;5.13;100.00
76732;BME280;65656;51.130;13.658;2024-03-23T13:31:33;98270.47;;;4.67;100.00
76732;BME280;65656;51.130;13.658;2024-03-23T13:35:33;98299.81;;;5.22;100.00
76732;BME280;65656;51.130;13.658;2024-03-23T13:39:34;98295.09;;;6.30;100.00
76732;BME280;65656;51.130;13.658;2024-03-23T13:43:34;98283.66;;;5.61;100.00
76732;BME280;65656;51.130;13.658;2024-03-23T13:47:34;98294.47;;;5.27;100.00
76732;BME280;65656;51.130;13.658;2024-03-23T13:51:35;98282.44;;;4.94;100.00
76732;BME280;65656;51.130;13.658;2024-03-23T13:55:35;98272.34;;;5.35;100.00
76732;BME280;65656;51.130;13.658;2024-03-23T13:59:36;98258.22;;;5.67;100.00
76732;BME280;65656;51.130;13.658;2024-03-23T14:03:36;98252.16;;;5.93;100.00
76732;BME280;65656;51.130;13.658;2024-03-23T14:07:37;98253.03;;;6.16;100.00
76732;BME280;65656;51.130;13.658;2024-03-23T14:11:37;98251.31;;;5.93;100.00
76732;BME280;65656;51.130;13.658;2024-03-23T14:15:38;98260.56;;;5.92;100.00
76732;BME280;65656;51.130;13.658;2024-03-23T14:19:38;98268.34;;;5.88;100.00
76732;BME280;65656;51.130;13.658;2024-03-23T14:23:39;98271.72;;;5.78;100.00
76732;BME280;65656;51.130;13.658;2024-03-23T14:27:39;98279.94;;;5.83;100.00
76732;BME280;65656;51.130;13.658;2024-03-23T14:31:39;98282.16;;;7.83;100.00
76732;BME280;65656;51.130;13.658;2024-03-23T14:35:40;98298.13;;;8.81;96.55
76732;BME280;65656;51.130;13.658;2024-03-23T14:39:40;98293.00;;;8.48;94.48
76732;BME280;65656;51.130;13.658;2024-03-23T14:43:41;98290.81;;;7.75;91.88
76732;BME280;65656;51.130;13.658;2024-03-23T14:47:41;98283.00;;;7.03;96.14
76732;BME280;65656;51.130;13.658;2024-03-23T14:51:42;98273.84;;;6.27;100.00
76732;BME280;65656;51.130;13.658;2024-03-23T14:55:42;98276.03;;;6.08;100.00
76732;BME280;65656;51.130;13.658;2024-03-23T14:59:43;98263.25;;;6.47;98.16
76732;BME280;65656;51.130;13.658;2024-03-23T15:03:43;98263.66;;;6.78;97.05
76732;BME280;65656;51.130;13.658;2024-03-23T15:07:43;98263.69;;;6.83;94.73
76732;BME280;65656;51.130;13.658;2024-03-23T15:11:44;98259.66;;;6.85;98.88
76732;BME280;65656;51.130;13.658;2024-03-23T15:15:44;98260.06;;;6.99;97.69
76732;BME280;65656;51.130;13.658;2024-03-23T15:19:45;98247.50;;;6.71;97.71
76732;BME280;65656;51.130;13.658;2024-03-23T15:23:46;98236.22;;;6.84;99.85
76732;BME280;65656;51.130;13.658;2024-03-23T15:27:46;98224.00;;;6.65;97.19
76732;BME280;65656;51.130;13.658;2024-03-23T15:31:47;98207.19;;;6.46;100.00
76732;BME280;65656;51.130;13.658;2024-03-23T15:35:47;98202.06;;;6.72;100.00
76732;BME280;65656;51.130;13.658;2024-03-23T15:39:48;98195.28;;;6.52;100.00
76732;BME280;65656;51.130;13.658;2024-03-23T15:43:48;98192.88;;;6.34;100.00
76732;BME280;65656;51.130;13.658;2024-03-23T15:47:49;98202.91;;;6.11;100.00
76732;BME280;65656;51.130;13.658;2024-03-23T15:51:49;98236.97;;;5.97;100.00
76732;BME280;65656;51.130;13.658;2024-03-23T15:55:56;98241.56;;;4.44;100.00
76732;BME280;65656;51.130;13.658;2024-03-23T15:59:57;98241.91;;;2.89;100.00
76732;BME280;65656;51.130;13.658;2024-03-23T16:03:58;98260.41;;;2.73;100.00
76732;BME280;65656;51.130;13.658;2024-03-23T16:07:58;98260.13;;;2.93;100.00
76732;BME280;65656;51.130;13.658;2024-03-23T16:11:58;98266.88;;;3.02;100.00
76732;BME280;65656;51.130;13.658;2024-03-23T16:16:00;98274.91;;;3.09;100.00
76732;BME280;65656;51.130;13.658;2024-03-23T16:20:02;98275.63;;;3.16;100.00
76732;BME280;65656;51.130;13.658;2024-03-23T16:24:03;98264.81;;;3.16;100.00
76732;BME280;65656;51.130;13.658;2024-03-23T16:28:04;98279.22;;;3.28;100.00
76732;BME280;65656;51.130;13.658;2024-03-23T16:32:04;98267.75;;;3.26;100.00
76732;BME280;65656;51.130;13.658;2024-03-23T16:36:07;98269.56;;;3.32;100.00
76732;BME280;65656;51.130;13.658;2024-03-23T16:40:08;98272.97;;;3.28;100.00
76732;BME280;65656;51.130;13.658;2024-03-23T16:44:08;98259.09;;;3.36;100.00
76732;BME280;65656;51.130;13.658;2024-03-23T16:48:09;98264.47;;;3.24;100.00
76732;BME280;65656;51.130;13.658;2024-03-23T16:52:09;98264.47;;;3.24;100.00
76732;BME280;65656;51.130;13.658;2024-03-23T16:56:10;98278.88;;;3.37;100.00
76732;BME280;65656;51.130;13.658;2024-03-23T17:00:11;98281.69;;;3.42;100.00
76732;BME280;65656;51.130;13.658;2024-03-23T17:04:11;98286.09;;;3.54;100.00
76732;BME280;65656;51.130;13.658;2024-03-23T17:08:12;98289.28;;;3.51;100.00
76732;BME280;65656;51.130;13.658;2024-03-23T17:12:12;98291.06;;;3.69;100.00
76732;BME280;65656;51.130;13.658;2024-03-23T17:16:13;98292.22;;;3.73;100.00
76732;BME280;65656;51.130;13.658;2024-03-23T17:20:14;98284.00;;;3.68;100.00
76732;BME280;65656;51.130;13.658;2024-03-23T17:24:14;98294.25;;;3.78;100.00
76732;BME280;65656;51.130;13.658;2024-03-23T17:28:15;98299.06;;;3.64;100.00
76732;BME280;65656;51.130;13.658;2024-03-23T17:32:15;98292.19;;;3.50;100.00
76732;BME280;65656;51.130;13.658;2024-03-23T17:36:16;98296.91;;;3.43;100.00
76732;BME280;65656;51.130;13.658;2024-03-23T17:40:16;98283.06;;;3.21;100.00
76732;BME280;65656;51.130;13.658;2024-03-23T17:44:17;98287.03;;;3.18;100.00
76732;BME280;65656;51.130;13.658;2024-03-23T17:48:17;98287.56;;;2.97;100.00
76732;BME280;65656;51.130;13.658;2024-03-23T17:52:18;98291.22;;;2.72;100.00
76732;BME280;65656;51.130;13.658;2024-03-23T17:56:18;98278.28;;;2.56;100.00
76732;BME280;65656;51.130;13.658;2024-03-23T18:00:19;98273.19;;;2.48;100.00
76732;BME280;65656;51.130;13.658;2024-03-23T18:04:19;98291.22;;;2.36;100.00
76732;BME280;65656;51.130;13.658;2024-03-23T18:08:19;98295.41;;;2.32;100.00
76732;BME280;65656;51.130;13.658;2024-03-23T18:12:20;98299.19;;;2.31;100.00
76732;BME280;65656;51.130;13.658;2024-03-23T18:16:21;98309.84;;;2.44;100.00
76732;BME280;65656;51.130;13.658;2024-03-23T18:20:22;98297.97;;;2.63;100.00
76732;BME280;65656;51.130;13.658;2024-03-23T18:24:22;98306.94;;;2.45;100.00
76732;BME280;65656;51.130;13.658;2024-03-23T18:28:23;98304.44;;;2.44;100.00
76732;BME280;65656;51.130;13.658;2024-03-23T18:32:24;98299.34;;;2.54;100.00
76732;BME280;65656;51.130;13.658;2024-03-23T18:36:24;98297.06;;;2.69;100.00
76732;BME280;65656;51.130;13.658;2024-03-23T18:40:24;98298.88;;;2.75;100.00
76732;BME280;65656;51.130;13.658;2024-03-23T18:44:25;98293.06;;;2.72;100.00
76732;BME280;65656;51.130;13.658;2024-03-23T18:48:25;98288.22;;;2.81;100.00
76732;BME280;65656;51.130;13.658;2024-03-23T18:52:26;98290.72;;;2.94;100.00
76732;BME280;65656;51.130;13.658;2024-03-23T18:56:29;98289.56;;;3.01;100.00
76732;BME280;65656;51.130;13.658;2024-03-23T19:00:33;98294.25;;;2.94;100.00
76732;BME280;65656;51.130;13.658;2024-03-23T19:04:33;98296.28;;;2.99;100.00
76732;BME280;65656;51.130;13.658;2024-03-23T19:08:34;98299.56;;;3.01;100.00
76732;BME280;65656;51.130;13.658;2024-03-23T19:12:34;98304.75;;;3.02;100.00
76732;BME280;65656;51.130;13.658;2024-03-23T19:16:35;98306.19;;;3.05;100.00
76732;BME280;65656;51.130;13.658;2024-03-23T19:20:35;98305.53;;;2.91;100.00
76732;BME280;65656;51.130;13.658;2024-03-23T19:24:36;98302.88;;;2.73;100.00
76732;BME280;65656;51.130;13.658;2024-03-23T19:28:36;98305.44;;;2.49;100.00
76732;BME280;65656;51.130;13.658;2024-03-23T19:32:36;98303.53;;;2.32;100.00
76732;BME280;65656;51.130;13.658;2024-03-23T19:36:37;98295.28;;;2.27;100.00
76732;BME280;65656;51.130;13.658;2024-03-23T19:40:37;98303.53;;;2.13;100.00
76732;BME280;65656;51.130;13.658;2024-03-23T19:44:38;98297.81;;;2.03;100.00
76732;BME280;65656;51.130;13.658;2024-03-23T19:48:38;98292.94;;;2.12;100.00
76732;BME280;65656;51.130;13.658;2024-03-23T19:52:38;98287.25;;;2.20;100.00
76732;BME280;65656;51.130;13.658;2024-03-23T19:56:42;98283.56;;;2.14;100.00
76732;BME280;65656;51.130;13.658;2024-03-23T20:00:42;98277.84;;;2.04;100.00
76732;BME280;65656;51.130;13.658;2024-03-23T20:04:43;98277.69;;;2.17;100.00
76732;BME280;65656;51.130;13.658;2024-03-23T20:08:43;98264.63;;;2.33;100.00
76732;BME280;65656;51.130;13.658;2024-03-23T20:12:44;98265.38;;;2.40;100.00
76732;BME280;65656;51.130;13.658;2024-03-23T20:16:44;98264.22;;;2.36;100.00
76732;BME280;65656;51.130;13.658;2024-03-23T20:20:45;98259.97;;;2.40;100.00
76732;BME280;65656;51.130;13.658;2024-03-23T20:24:45;98258.81;;;2.36;100.00
76732;BME280;65656;51.130;13.658;2024-03-23T20:28:46;98258.41;;;2.32;100.00
76732;BME280;65656;51.130;13.658;2024-03-23T20:32:46;98256.63;;;2.44;100.00
76732;BME280;65656;51.130;13.658;2024-03-23T20:36:47;98262.84;;;2.45;100.00
76732;BME280;65656;51.130;13.658;2024-03-23T20:40:54;98268.25;;;2.45;100.00
76732;BME280;65656;51.130;13.658;2024-03-23T20:44:54;98266.69;;;2.37;100.00
76732;BME280;65656;51.130;13.658;2024-03-23T20:48:55;98267.72;;;2.36;100.00
76732;BME280;65656;51.130;13.658;2024-03-23T20:52:56;98263.75;;;2.39;100.00
76732;BME280;65656;51.130;13.658;2024-03-23T20:56:56;98258.41;;;2.32;100.00
76732;BME280;65656;51.130;13.658;2024-03-23T21:01:01;98259.41;;;2.19;100.00
76732;BME280;65656;51.130;13.658;2024-03-23T21:05:02;98260.00;;;2.03;100.00
76732;BME280;65656;51.130;13.658;2024-03-23T21:09:02;98255.84;;;2.01;100.00
76732;BME280;65656;51.130;13.658;2024-03-23T21:13:03;98258.31;;;2.02;100.00
76732;BME280;65656;51.130;13.658;2024-03-23T21:17:03;98254.13;;;2.06;100.00
76732;BME280;65656;51.130;13.658;2024-03-23T21:21:04;98252.19;;;2.13;100.00
76732;BME280;65656;51.130;13.658;2024-03-23T21:25:05;98246.31;;;2.16;100.00
76732;BME280;65656;51.130;13.658;2024-03-23T21:29:06;98249.31;;;2.08;100.00
76732;BME280;65656;51.130;13.658;2024-03-23T21:33:06;98245.56;;;1.91;100.00
76732;BME280;65656;51.130;13.658;2024-03-23T21:37:07;98245.44;;;2.04;100.00
76732;BME280;65656;51.130;13.658;2024-03-23T21:41:07;98240.09;;;2.16;100.00
76732;BME280;65656;51.130;13.658;2024-03-23T21:45:08;98234.63;;;2.04;100.00
76732;BME280;65656;51.130;13.658;2024-03-23T21:49:08;98238.50;;;1.90;100.00
76732;BME280;65656;51.130;13.658;2024-03-23T21:53:09;98237.75;;;2.01;100.00
76732;BME280;65656;51.130;13.658;2024-03-23T21:57:09;98232.97;;;2.03;100.00